sensor_id;sensor_type;location;lat;lon;timestamp;P1;durP1;ratioP1;P2;durP2;ratioP2
572;SDS011;271;51.114;13.780;2024-03-23T00:54:20;23.42;;;7.30;;
572;SDS011;271;51.114;13.780;2024-03-23T00:57:08;22.70;;;7.60;;
572;SDS011;271;51.114;13.780;2024-03-23T00:59:54;21.77;;;7.13;;
572;SDS011;271;51.114;13.780;2024-03-23T01:02:42;21.83;;;7.57;;
572;SDS011;271;51.114;13.780;2024-03-23T01:05:28;22.20;;;7.90;;
572;SDS011;271;51.114;13.780;2024-03-23T01:08:16;25.70;;;7.80;;
572;SDS011;271;51.114;13.780;2024-03-23T01:11:04;24.10;;;7.83;;
572;SDS011;271;51.114;13.780;2024-03-23T01:13:53;22.17;;;7.60;;
572;SDS011;271;51.114;13.780;2024-03-23T01:16:41;24.42;;;8.60;;
572;SDS011;271;51.114;13.780;2024-03-23T01:19:29;24.50;;;9.47;;
572;SDS011;271;51.114;13.780;2024-03-23T01:22:16;23.67;;;8.38;;
572;SDS011;271;51.114;13.780;2024-03-23T01:25:04;22.33;;;7.37;;
572;SDS011;271;51.114;13.780;2024-03-23T01:27:52;27.10;;;8.00;;
572;SDS011;271;51.114;13.780;2024-03-23T01:30:39;22.67;;;7.37;;
572;SDS011;271;51.114;13.780;2024-03-23T01:33:26;22.57;;;7.40;;
572;SDS011;271;51.114;13.780;2024-03-23T01:36:14;23.20;;;7.00;;
572;SDS011;271;51.114;13.780;2024-03-23T01:39:00;21.30;;;7.07;;
572;SDS011;271;51.114;13.780;2024-03-23T01:41:48;22.90;;;7.10;;
572;SDS011;271;51.114;13.780;2024-03-23T01:44:37;23.52;;;8.18;;
572;SDS011;271;51.114;13.780;2024-03-23T01:47:24;24.00;;;7.83;;
572;SDS011;271;51.114;13.780;2024-03-23T01:50:11;22.95;;;7.35;;
572;SDS011;271;51.114;13.780;2024-03-23T01:53:00;23.70;;;8.00;;
572;SDS011;271;51.114;13.780;2024-03-23T01:55:51;25.50;;;7.70;;
572;SDS011;271;51.114;13.780;2024-03-23T01:58:37;24.83;;;7.68;;
572;SDS011;271;51.114;13.780;2024-03-23T02:01:26;25.50;;;8.20;;
572;SDS011;271;51.114;13.780;2024-03-23T02:04:13;23.10;;;8.60;;
572;SDS011;271;51.114;13.780;2024-03-23T02:07:01;23.93;;;8.03;;
572;SDS011;271;51.114;13.780;2024-03-23T02:09:48;24.83;;;9.23;;
572;SDS011;271;51.114;13.780;2024-03-23T02:12:36;23.87;;;8.87;;
572;SDS011;271;51.114;13.780;2024-03-23T02:15:23;24.13;;;8.80;;
572;SDS011;271;51.114;13.780;2024-03-23T02:18:12;29.30;;;10.53;;
572;SDS011;271;51.114;13.780;2024-03-23T02:20:59;26.93;;;11.20;;
572;SDS011;271;51.114;13.780;2024-03-23T02:23:48;25.60;;;12.13;;
572;SDS011;271;51.114;13.780;2024-03-23T02:26:35;26.93;;;10.33;;
572;SDS011;271;51.114;13.780;2024-03-23T02:29:23;26.30;;;11.50;;
572;SDS011;271;51.114;13.780;2024-03-23T02:32:09;25.65;;;10.65;;
572;SDS011;271;51.114;13.780;2024-03-23T02:34:57;26.17;;;11.60;;
572;SDS011;271;51.114;13.780;2024-03-23T02:37:45;27.93;;;12.07;;
572;SDS011;271;51.114;13.780;2024-03-23T02:40:35;28.63;;;12.20;;
572;SDS011;271;51.114;13.780;2024-03-23T02:43:23;26.50;;;9.80;;
572;SDS011;271;51.114;13.780;2024-03-23T02:46:10;26.80;;;10.83;;
572;SDS011;271;51.114;13.780;2024-03-23T02:48:57;26.73;;;9.73;;
572;SDS011;271;51.114;13.780;2024-03-23T02:51:44;24.93;;;9.30;;
572;SDS011;271;51.114;13.780;2024-03-23T02:54:34;22.60;;;7.97;;
572;SDS011;271;51.114;13.780;2024-03-23T02:57:22;26.13;;;9.27;;
572;SDS011;271;51.114;13.780;2024-03-23T03:00:10;25.60;;;9.13;;
572;SDS011;271;51.114;13.780;2024-03-23T03:02:58;22.90;;;9.70;;
572;SDS011;271;51.114;13.780;2024-03-23T03:05:46;23.73;;;9.40;;
572;SDS011;271;51.114;13.780;2024-03-23T03:08:33;24.30;;;9.73;;
572;SDS011;271;51.114;13.780;2024-03-23T03:11:20;23.67;;;8.87;;
572;SDS011;271;51.114;13.780;2024-03-23T03:14:09;27.10;;;11.40;;
572;SDS011;271;51.114;13.780;2024-03-23T03:16:56;26.67;;;9.88;;
572;SDS011;271;51.114;13.780;2024-03-23T03:19:44;26.00;;;10.70;;
572;SDS011;271;51.114;13.780;2024-03-23T03:22:31;25.70;;;10.30;;
572;SDS011;271;51.114;13.780;2024-03-23T03:25:19;25.17;;;9.17;;
572;SDS011;271;51.114;13.780;2024-03-23T03:28:06;27.13;;;10.93;;
572;SDS011;271;51.114;13.780;2024-03-23T03:30:55;24.27;;;9.37;;
572;SDS011;271;51.114;13.780;2024-03-23T03:33:41;24.07;;;9.27;;
572;SDS011;271;51.114;13.780;2024-03-23T03:36:29;24.00;;;9.73;;
572;SDS011;271;51.114;13.780;2024-03-23T03:39:16;26.80;;;10.60;;
572;SDS011;271;51.114;13.780;2024-03-23T03:42:03;29.17;;;10.90;;
572;SDS011;271;51.114;13.780;2024-03-23T03:44:52;25.30;;;10.90;;
572;SDS011;271;51.114;13.780;2024-03-23T03:47:42;28.67;;;10.13;;
572;SDS011;271;51.114;13.780;2024-03-23T03:50:29;26.70;;;10.10;;
572;SDS011;271;51.114;13.780;2024-03-23T03:53:16;26.10;;;10.20;;
572;SDS011;271;51.114;13.780;2024-03-23T03:56:03;29.80;;;10.33;;
572;SDS011;271;51.114;13.780;2024-03-23T03:58:51;24.47;;;9.10;;
572;SDS011;271;51.114;13.780;2024-03-23T04:01:38;27.20;;;11.40;;
572;SDS011;271;51.114;13.780;2024-03-23T04:04:27;28.80;;;10.60;;
572;SDS011;271;51.114;13.780;2024-03-23T04:07:13;26.03;;;11.07;;
572;SDS011;271;51.114;13.780;2024-03-23T04:10:03;24.83;;;9.50;;
572;SDS011;271;51.114;13.780;2024-03-23T04:12:53;28.40;;;12.90;;
572;SDS011;271;51.114;13.780;2024-03-23T04:15:41;26.70;;;10.97;;
572;SDS011;271;51.114;13.780;2024-03-23T04:18:28;25.27;;;10.47;;
572;SDS011;271;51.114;13.780;2024-03-23T04:21:17;26.87;;;11.10;;
572;SDS011;271;51.114;13.780;2024-03-23T04:24:05;27.47;;;11.23;;
572;SDS011;271;51.114;13.780;2024-03-23T04:26:52;29.50;;;11.77;;
572;SDS011;271;51.114;13.780;2024-03-23T04:29:39;27.90;;;12.30;;
572;SDS011;271;51.114;13.780;2024-03-23T04:32:26;28.63;;;11.90;;
572;SDS011;271;51.114;13.780;2024-03-23T04:35:14;28.57;;;10.40;;
572;SDS011;271;51.114;13.780;2024-03-23T04:38:03;28.03;;;10.80;;
572;SDS011;271;51.114;13.780;2024-03-23T04:40:53;27.00;;;10.73;;
572;SDS011;271;51.114;13.780;2024-03-23T04:43:41;25.97;;;9.83;;
572;SDS011;271;51.114;13.780;2024-03-23T04:46:29;26.27;;;10.37;;
572;SDS011;271;51.114;13.780;2024-03-23T04:49:17;27.17;;;11.47;;
572;SDS011;271;51.114;13.780;2024-03-23T04:52:05;31.23;;;12.30;;
572;SDS011;271;51.114;13.780;2024-03-23T04:54:54;31.67;;;13.60;;
572;SDS011;271;51.114;13.780;2024-03-23T04:57:42;26.37;;;11.10;;
572;SDS011;271;51.114;13.780;2024-03-23T05:00:30;29.10;;;12.67;;
572;SDS011;271;51.114;13.780;2024-03-23T05:03:16;26.63;;;10.60;;
572;SDS011;271;51.114;13.780;2024-03-23T05:06:05;29.90;;;11.13;;
572;SDS011;271;51.114;13.780;2024-03-23T05:08:52;30.17;;;12.25;;
572;SDS011;271;51.114;13.780;2024-03-23T05:11:41;28.27;;;12.43;;
572;SDS011;271;51.114;13.780;2024-03-23T05:14:28;28.10;;;11.40;;
572;SDS011;271;51.114;13.780;2024-03-23T05:17:15;27.17;;;12.00;;
572;SDS011;271;51.114;13.780;2024-03-23T05:20:02;27.80;;;12.40;;
572;SDS011;271;51.114;13.780;2024-03-23T05:22:51;30.67;;;13.07;;
572;SDS011;271;51.114;13.780;2024-03-23T05:25:37;29.93;;;13.80;;
572;SDS011;271;51.114;13.780;2024-03-23T05:28:26;34.20;;;14.30;;
572;SDS011;271;51.114;13.780;2024-03-23T05:31:19;32.50;;;16.00;;
572;SDS011;271;51.114;13.780;2024-03-23T05:34:10;35.97;;;17.57;;
572;SDS011;271;51.114;13.780;2024-03-23T05:36:56;30.80;;;13.50;;
572;SDS011;271;51.114;13.780;2024-03-23T05:39:44;35.27;;;16.87;;
572;SDS011;271;51.114;13.780;2024-03-23T05:42:31;39.07;;;19.03;;
572;SDS011;271;51.114;13.780;2024-03-23T05:45:20;42.13;;;20.80;;
572;SDS011;271;51.114;13.780;2024-03-23T05:48:06;37.90;;;18.47;;
572;SDS011;271;51.114;13.780;2024-03-23T05:50:54;43.33;;;20.37;;
572;SDS011;271;51.114;13.780;2024-03-23T05:53:41;41.77;;;20.20;;
572;SDS011;271;51.114;13.780;2024-03-23T05:56:28;39.63;;;18.53;;
572;SDS011;271;51.114;13.780;2024-03-23T05:59:15;39.30;;;20.53;;
572;SDS011;271;51.114;13.780;2024-03-23T06:02:04;36.97;;;18.57;;
572;SDS011;271;51.114;13.780;2024-03-23T06:04:51;37.97;;;18.80;;
572;SDS011;271;51.114;13.780;2024-03-23T06:07:39;40.08;;;19.30;;
572;SDS011;271;51.114;13.780;2024-03-23T06:10:26;38.43;;;17.90;;
572;SDS011;271;51.114;13.780;2024-03-23T06:13:13;37.07;;;17.30;;
572;SDS011;271;51.114;13.780;2024-03-23T06:16:00;33.70;;;16.93;;
572;SDS011;271;51.114;13.780;2024-03-23T06:18:49;33.90;;;16.43;;
572;SDS011;271;51.114;13.780;2024-03-23T06:21:36;39.10;;;17.40;;
572;SDS011;271;51.114;13.780;2024-03-23T06:24:26;35.20;;;17.07;;
572;SDS011;271;51.114;13.780;2024-03-23T06:27:13;35.87;;;17.00;;
572;SDS011;271;51.114;13.780;2024-03-23T06:30:04;33.70;;;15.35;;
572;SDS011;271;51.114;13.780;2024-03-23T06:32:53;35.00;;;14.87;;
572;SDS011;271;51.114;13.780;2024-03-23T06:35:44;37.08;;;18.40;;
572;SDS011;271;51.114;13.780;2024-03-23T06:38:37;36.07;;;16.50;;
572;SDS011;271;51.114;13.780;2024-03-23T06:41:25;36.55;;;16.65;;
572;SDS011;271;51.114;13.780;2024-03-23T06:44:12;38.42;;;19.90;;
572;SDS011;271;51.114;13.780;2024-03-23T06:47:00;39.60;;;19.10;;
572;SDS011;271;51.114;13.780;2024-03-23T06:49:48;35.93;;;16.97;;
572;SDS011;271;51.114;13.780;2024-03-23T06:52:37;37.70;;;18.53;;
572;SDS011;271;51.114;13.780;2024-03-23T06:55:24;36.47;;;17.67;;
572;SDS011;271;51.114;13.780;2024-03-23T06:58:12;38.27;;;18.60;;
572;SDS011;271;51.114;13.780;2024-03-23T07:00:59;37.30;;;18.80;;
572;SDS011;271;51.114;13.780;2024-03-23T07:03:47;37.70;;;18.77;;
572;SDS011;271;51.114;13.780;2024-03-23T07:06:34;35.97;;;17.90;;
572;SDS011;271;51.114;13.780;2024-03-23T07:09:30;41.83;;;19.10;;
572;SDS011;271;51.114;13.780;2024-03-23T07:12:17;37.27;;;20.00;;
572;SDS011;271;51.114;13.780;2024-03-23T07:15:05;42.20;;;23.70;;
572;SDS011;271;51.114;13.780;2024-03-23T07:17:52;50.77;;;26.97;;
572;SDS011;271;51.114;13.780;2024-03-23T07:20:41;44.07;;;23.50;;
572;SDS011;271;51.114;13.780;2024-03-23T07:23:27;44.40;;;21.00;;
572;SDS011;271;51.114;13.780;2024-03-23T07:26:20;45.90;;;23.60;;
572;SDS011;271;51.114;13.780;2024-03-23T07:29:07;45.03;;;23.43;;
572;SDS011;271;51.114;13.780;2024-03-23T07:31:57;43.87;;;23.00;;
572;SDS011;271;51.114;13.780;2024-03-23T07:34:44;47.47;;;26.00;;
572;SDS011;271;51.114;13.780;2024-03-23T07:37:35;45.97;;;23.10;;
572;SDS011;271;51.114;13.780;2024-03-23T07:40:22;44.40;;;23.30;;
572;SDS011;271;51.114;13.780;2024-03-23T07:43:14;41.93;;;22.43;;
572;SDS011;271;51.114;13.780;2024-03-23T07:46:01;42.33;;;23.33;;
572;SDS011;271;51.114;13.780;2024-03-23T07:48:50;43.40;;;21.57;;
572;SDS011;271;51.114;13.780;2024-03-23T07:51:37;42.93;;;24.17;;
572;SDS011;271;51.114;13.780;2024-03-23T07:54:28;45.07;;;23.50;;
572;SDS011;271;51.114;13.780;2024-03-23T07:57:15;46.70;;;25.67;;
572;SDS011;271;51.114;13.780;2024-03-23T08:00:08;45.17;;;24.03;;
572;SDS011;271;51.114;13.780;2024-03-23T08:02:55;44.30;;;23.17;;
572;SDS011;271;51.114;13.780;2024-03-23T08:05:46;45.43;;;23.57;;
572;SDS011;271;51.114;13.780;2024-03-23T08:08:33;43.00;;;22.93;;
572;SDS011;271;51.114;13.780;2024-03-23T08:11:23;43.90;;;23.43;;
572;SDS011;271;51.114;13.780;2024-03-23T08:14:10;42.37;;;23.07;;
572;SDS011;271;51.114;13.780;2024-03-23T08:17:02;39.50;;;21.93;;
572;SDS011;271;51.114;13.780;2024-03-23T08:19:49;43.87;;;21.77;;
572;SDS011;271;51.114;13.780;2024-03-23T08:22:38;40.77;;;20.17;;
572;SDS011;271;51.114;13.780;2024-03-23T08:25:25;41.00;;;20.70;;
572;SDS011;271;51.114;13.780;2024-03-23T08:28:16;40.43;;;21.47;;
572;SDS011;271;51.114;13.780;2024-03-23T08:31:03;41.07;;;21.20;;
572;SDS011;271;51.114;13.780;2024-03-23T08:33:56;42.67;;;22.93;;
572;SDS011;271;51.114;13.780;2024-03-23T08:36:43;40.93;;;21.50;;
572;SDS011;271;51.114;13.780;2024-03-23T08:39:32;37.37;;;19.37;;
572;SDS011;271;51.114;13.780;2024-03-23T08:42:18;39.87;;;21.47;;
572;SDS011;271;51.114;13.780;2024-03-23T08:45:09;40.57;;;21.03;;
572;SDS011;271;51.114;13.780;2024-03-23T08:47:56;37.43;;;20.50;;
572;SDS011;271;51.114;13.780;2024-03-23T08:50:59;36.37;;;20.57;;
572;SDS011;271;51.114;13.780;2024-03-23T08:53:49;41.07;;;21.47;;
572;SDS011;271;51.114;13.780;2024-03-23T08:56:37;41.27;;;20.40;;
572;SDS011;271;51.114;13.780;2024-03-23T08:59:24;44.40;;;21.17;;
572;SDS011;271;51.114;13.780;2024-03-23T09:02:11;37.43;;;19.40;;
572;SDS011;271;51.114;13.780;2024-03-23T09:04:59;35.97;;;19.17;;
572;SDS011;271;51.114;13.780;2024-03-23T09:07:51;37.27;;;18.63;;
572;SDS011;271;51.114;13.780;2024-03-23T09:10:39;33.40;;;18.10;;
572;SDS011;271;51.114;13.780;2024-03-23T09:13:26;38.90;;;20.07;;
572;SDS011;271;51.114;13.780;2024-03-23T09:16:14;35.00;;;18.37;;
572;SDS011;271;51.114;13.780;2024-03-23T09:19:03;35.57;;;18.13;;
572;SDS011;271;51.114;13.780;2024-03-23T09:21:51;34.33;;;16.90;;
572;SDS011;271;51.114;13.780;2024-03-23T09:24:42;33.47;;;16.67;;
572;SDS011;271;51.114;13.780;2024-03-23T09:27:30;40.70;;;19.13;;
572;SDS011;271;51.114;13.780;2024-03-23T09:30:41;36.33;;;17.97;;
572;SDS011;271;51.114;13.780;2024-03-23T09:33:36;41.30;;;20.77;;
572;SDS011;271;51.114;13.780;2024-03-23T09:36:22;34.73;;;16.97;;
572;SDS011;271;51.114;13.780;2024-03-23T09:39:16;36.30;;;17.50;;
572;SDS011;271;51.114;13.780;2024-03-23T09:42:07;31.63;;;15.50;;
572;SDS011;271;51.114;13.780;2024-03-23T09:44:56;30.70;;;15.60;;
572;SDS011;271;51.114;13.780;2024-03-23T09:47:44;29.37;;;12.80;;
572;SDS011;271;51.114;13.780;2024-03-23T09:50:33;30.60;;;13.03;;
572;SDS011;271;51.114;13.780;2024-03-23T09:53:20;28.33;;;12.50;;
572;SDS011;271;51.114;13.780;2024-03-23T09:56:11;28.13;;;10.00;;
572;SDS011;271;51.114;13.780;2024-03-23T09:59:02;22.50;;;5.40;;
572;SDS011;271;51.114;13.780;2024-03-23T10:01:50;18.80;;;4.00;;
572;SDS011;271;51.114;13.780;2024-03-23T10:04:37;19.07;;;2.93;;
572;SDS011;271;51.114;13.780;2024-03-23T10:07:25;18.27;;;2.83;;
572;SDS011;271;51.114;13.780;2024-03-23T10:10:15;17.77;;;2.33;;
572;SDS011;271;51.114;13.780;2024-03-23T10:13:04;18.27;;;2.13;;
572;SDS011;271;51.114;13.780;2024-03-23T10:15:58;16.70;;;2.00;;
572;SDS011;271;51.114;13.780;2024-03-23T10:18:46;16.60;;;1.50;;
572;SDS011;271;51.114;13.780;2024-03-23T10:21:33;16.50;;;1.30;;
572;SDS011;271;51.114;13.780;2024-03-23T10:24:21;16.45;;;1.15;;
572;SDS011;271;51.114;13.780;2024-03-23T10:27:07;15.88;;;1.00;;
572;SDS011;271;51.114;13.780;2024-03-23T10:29:55;15.73;;;1.00;;
572;SDS011;271;51.114;13.780;2024-03-23T10:33:07;15.88;;;0.90;;
572;SDS011;271;51.114;13.780;2024-03-23T10:36:08;16.00;;;0.90;;
572;SDS011;271;51.114;13.780;2024-03-23T10:38:56;15.65;;;0.80;;
572;SDS011;271;51.114;13.780;2024-03-23T10:41:44;19.23;;;0.90;;
572;SDS011;271;51.114;13.780;2024-03-23T10:44:36;15.50;;;0.88;;
572;SDS011;271;51.114;13.780;2024-03-23T10:47:25;17.13;;;1.10;;
572;SDS011;271;51.114;13.780;2024-03-23T10:50:14;18.80;;;1.00;;
572;SDS011;271;51.114;13.780;2024-03-23T10:53:01;15.35;;;0.80;;
572;SDS011;271;51.114;13.780;2024-03-23T10:55:52;17.88;;;1.08;;
572;SDS011;271;51.114;13.780;2024-03-23T10:58:56;15.38;;;0.90;;
572;SDS011;271;51.114;13.780;2024-03-23T11:05:38;15.55;;;1.23;;
572;SDS011;271;51.114;13.780;2024-03-23T11:08:35;15.55;;;0.93;;
572;SDS011;271;51.114;13.780;2024-03-23T11:11:23;15.38;;;0.80;;
572;SDS011;271;51.114;13.780;2024-03-23T11:14:13;15.40;;;0.93;;
572;SDS011;271;51.114;13.780;2024-03-23T11:17:17;15.77;;;1.05;;
572;SDS011;271;51.114;13.780;2024-03-23T11:20:06;15.70;;;1.10;;
572;SDS011;271;51.114;13.780;2024-03-23T11:22:56;15.75;;;1.00;;
572;SDS011;271;51.114;13.780;2024-03-23T11:25:44;16.38;;;1.45;;
572;SDS011;271;51.114;13.780;2024-03-23T11:28:34;15.63;;;1.20;;
572;SDS011;271;51.114;13.780;2024-03-23T11:31:24;15.40;;;0.90;;
572;SDS011;271;51.114;13.780;2024-03-23T11:34:11;15.43;;;1.00;;
572;SDS011;271;51.114;13.780;2024-03-23T11:37:09;15.70;;;0.85;;
572;SDS011;271;51.114;13.780;2024-03-23T11:40:20;15.35;;;0.80;;
572;SDS011;271;51.114;13.780;2024-03-23T11:43:12;15.63;;;0.95;;
572;SDS011;271;51.114;13.780;2024-03-23T11:49:42;15.90;;;1.23;;
572;SDS011;271;51.114;13.780;2024-03-23T11:53:53;15.45;;;1.02;;
572;SDS011;271;51.114;13.780;2024-03-23T12:03:14;15.32;;;1.35;;
572;SDS011;271;51.114;13.780;2024-03-23T12:06:19;15.63;;;1.58;;
572;SDS011;271;51.114;13.780;2024-03-23T12:09:06;19.80;;;3.55;;
572;SDS011;271;51.114;13.780;2024-03-23T12:11:53;16.27;;;1.65;;
572;SDS011;271;51.114;13.780;2024-03-23T12:14:44;16.30;;;1.40;;
572;SDS011;271;51.114;13.780;2024-03-23T12:17:33;15.30;;;1.40;;
572;SDS011;271;51.114;13.780;2024-03-23T12:20:22;15.57;;;1.55;;
572;SDS011;271;51.114;13.780;2024-03-23T12:23:11;15.43;;;1.20;;
572;SDS011;271;51.114;13.780;2024-03-23T12:25:59;15.45;;;1.23;;
572;SDS011;271;51.114;13.780;2024-03-23T12:28:47;15.15;;;1.05;;
572;SDS011;271;51.114;13.780;2024-03-23T12:31:34;15.75;;;1.48;;
572;SDS011;271;51.114;13.780;2024-03-23T12:34:21;15.50;;;1.20;;
572;SDS011;271;51.114;13.780;2024-03-23T12:37:13;16.17;;;1.80;;
572;SDS011;271;51.114;13.780;2024-03-23T12:40:03;16.27;;;1.60;;
572;SDS011;271;51.114;13.780;2024-03-23T12:42:51;16.13;;;1.50;;
572;SDS011;271;51.114;13.780;2024-03-23T12:45:38;16.15;;;2.00;;
572;SDS011;271;51.114;13.780;2024-03-23T12:48:28;18.70;;;2.90;;
572;SDS011;271;51.114;13.780;2024-03-23T12:51:16;16.10;;;2.05;;
572;SDS011;271;51.114;13.780;2024-03-23T12:54:07;16.63;;;2.00;;
572;SDS011;271;51.114;13.780;2024-03-23T12:56:55;15.85;;;1.70;;
572;SDS011;271;51.114;13.780;2024-03-23T12:59:44;16.30;;;2.03;;
572;SDS011;271;51.114;13.780;2024-03-23T13:02:36;16.45;;;2.20;;
572;SDS011;271;51.114;13.780;2024-03-23T13:05:24;16.50;;;2.10;;
572;SDS011;271;51.114;13.780;2024-03-23T13:08:14;16.92;;;2.55;;
572;SDS011;271;51.114;13.780;2024-03-23T13:11:02;17.08;;;2.53;;
572;SDS011;271;51.114;13.780;2024-03-23T13:13:50;17.50;;;2.95;;
572;SDS011;271;51.114;13.780;2024-03-23T13:16:40;17.70;;;3.08;;
572;SDS011;271;51.114;13.780;2024-03-23T13:19:28;18.15;;;3.55;;
572;SDS011;271;51.114;13.780;2024-03-23T13:22:16;17.23;;;3.15;;
572;SDS011;271;51.114;13.780;2024-03-23T13:25:04;17.25;;;2.85;;
572;SDS011;271;51.114;13.780;2024-03-23T13:27:56;17.42;;;3.28;;
572;SDS011;271;51.114;13.780;2024-03-23T13:30:49;17.45;;;3.20;;
572;SDS011;271;51.114;13.780;2024-03-23T13:33:37;17.95;;;2.80;;
572;SDS011;271;51.114;13.780;2024-03-23T13:48:19;16.95;;;3.10;;
572;SDS011;271;51.114;13.780;2024-03-23T13:58:07;17.58;;;2.47;;
572;SDS011;271;51.114;13.780;2024-03-23T14:15:26;16.50;;;1.90;;
572;SDS011;271;51.114;13.780;2024-03-23T14:18:18;17.60;;;3.30;;
572;SDS011;271;51.114;13.780;2024-03-23T14:21:08;17.42;;;2.20;;
572;SDS011;271;51.114;13.780;2024-03-23T14:23:56;18.70;;;1.77;;
572;SDS011;271;51.114;13.780;2024-03-23T14:26:43;17.25;;;2.40;;
572;SDS011;271;51.114;13.780;2024-03-23T14:29:37;20.10;;;2.33;;
572;SDS011;271;51.114;13.780;2024-03-23T14:36:09;17.20;;;1.67;;
572;SDS011;271;51.114;13.780;2024-03-23T14:39:27;16.13;;;1.73;;
572;SDS011;271;51.114;13.780;2024-03-23T14:42:22;17.73;;;2.25;;
572;SDS011;271;51.114;13.780;2024-03-23T14:45:23;16.30;;;1.75;;
572;SDS011;271;51.114;13.780;2024-03-23T14:48:27;16.08;;;2.08;;
572;SDS011;271;51.114;13.780;2024-03-23T14:51:46;18.88;;;2.20;;
572;SDS011;271;51.114;13.780;2024-03-23T14:54:40;16.33;;;1.93;;
572;SDS011;271;51.114;13.780;2024-03-23T14:57:26;18.10;;;2.20;;
572;SDS011;271;51.114;13.780;2024-03-23T15:00:30;17.58;;;2.28;;
572;SDS011;271;51.114;13.780;2024-03-23T15:03:45;17.70;;;1.93;;
572;SDS011;271;51.114;13.780;2024-03-23T15:25:15;16.02;;;2.03;;
572;SDS011;271;51.114;13.780;2024-03-23T15:28:26;19.27;;;2.20;;
572;SDS011;271;51.114;13.780;2024-03-23T15:31:24;16.83;;;2.40;;
572;SDS011;271;51.114;13.780;2024-03-23T15:34:26;16.33;;;2.30;;
572;SDS011;271;51.114;13.780;2024-03-23T15:37:16;16.50;;;2.10;;
572;SDS011;271;51.114;13.780;2024-03-23T15:40:19;18.77;;;2.33;;
572;SDS011;271;51.114;13.780;2024-03-23T15:43:06;19.73;;;3.20;;
572;SDS011;271;51.114;13.780;2024-03-23T15:45:54;19.07;;;2.87;;
572;SDS011;271;51.114;13.780;2024-03-23T15:48:46;21.97;;;3.00;;
572;SDS011;271;51.114;13.780;2024-03-23T15:51:35;17.00;;;2.90;;
572;SDS011;271;51.114;13.780;2024-03-23T15:54:24;16.40;;;2.75;;
572;SDS011;271;51.114;13.780;2024-03-23T15:57:12;16.70;;;2.50;;
572;SDS011;271;51.114;13.780;2024-03-23T16:00:07;18.20;;;2.40;;
572;SDS011;271;51.114;13.780;2024-03-23T16:02:57;16.67;;;2.85;;
572;SDS011;271;51.114;13.780;2024-03-23T16:05:49;19.02;;;3.83;;
572;SDS011;271;51.114;13.780;2024-03-23T16:08:38;16.48;;;2.33;;
572;SDS011;271;51.114;13.780;2024-03-23T16:11:24;17.40;;;3.08;;
572;SDS011;271;51.114;13.780;2024-03-23T16:14:14;19.30;;;3.25;;
572;SDS011;271;51.114;13.780;2024-03-23T16:17:01;19.55;;;3.30;;
572;SDS011;271;51.114;13.780;2024-03-23T16:19:49;21.70;;;3.50;;
572;SDS011;271;51.114;13.780;2024-03-23T16:22:36;18.77;;;3.50;;
572;SDS011;271;51.114;13.780;2024-03-23T16:25:23;18.48;;;3.53;;
572;SDS011;271;51.114;13.780;2024-03-23T16:28:11;19.35;;;4.20;;
572;SDS011;271;51.114;13.780;2024-03-23T17:01:44;19.15;;;3.95;;
572;SDS011;271;51.114;13.780;2024-03-23T17:04:45;18.55;;;3.55;;
572;SDS011;271;51.114;13.780;2024-03-23T17:11:57;20.63;;;3.63;;
572;SDS011;271;51.114;13.780;2024-03-23T17:15:15;18.00;;;3.58;;
572;SDS011;271;51.114;13.780;2024-03-23T17:22:22;19.60;;;4.03;;
572;SDS011;271;51.114;13.780;2024-03-23T17:25:44;17.83;;;3.80;;
572;SDS011;271;51.114;13.780;2024-03-23T17:28:43;19.48;;;4.38;;
572;SDS011;271;51.114;13.780;2024-03-23T17:31:42;18.30;;;3.67;;
572;SDS011;271;51.114;13.780;2024-03-23T17:34:44;19.17;;;3.50;;
572;SDS011;271;51.114;13.780;2024-03-23T17:37:34;18.75;;;4.10;;
572;SDS011;271;51.114;13.780;2024-03-23T17:40:29;19.98;;;4.47;;
572;SDS011;271;51.114;13.780;2024-03-23T17:43:55;19.05;;;3.33;;
572;SDS011;271;51.114;13.780;2024-03-23T17:47:04;18.88;;;4.25;;
572;SDS011;271;51.114;13.780;2024-03-23T17:50:13;20.08;;;4.35;;
572;SDS011;271;51.114;13.780;2024-03-23T17:53:10;18.52;;;4.25;;
572;SDS011;271;51.114;13.780;2024-03-23T18:03:39;20.88;;;5.85;;
572;SDS011;271;51.114;13.780;2024-03-23T18:07:31;25.35;;;5.60;;
572;SDS011;271;51.114;13.780;2024-03-23T18:10:24;19.30;;;4.70;;
572;SDS011;271;51.114;13.780;2024-03-23T18:13:31;20.50;;;5.03;;
572;SDS011;271;51.114;13.780;2024-03-23T18:17:14;20.65;;;5.28;;
572;SDS011;271;51.114;13.780;2024-03-23T18:20:25;21.35;;;5.57;;
572;SDS011;271;51.114;13.780;2024-03-23T18:23:29;20.05;;;5.25;;
572;SDS011;271;51.114;13.780;2024-03-23T18:26:33;20.13;;;5.22;;
572;SDS011;271;51.114;13.780;2024-03-23T18:29:39;20.08;;;4.55;;
572;SDS011;271;51.114;13.780;2024-03-23T18:32:46;19.63;;;4.95;;
572;SDS011;271;51.114;13.780;2024-03-23T18:35:48;19.88;;;4.95;;
572;SDS011;271;51.114;13.780;2024-03-23T18:38:37;22.02;;;5.70;;
572;SDS011;271;51.114;13.780;2024-03-23T18:41:27;24.42;;;5.63;;
572;SDS011;271;51.114;13.780;2024-03-23T18:44:33;22.83;;;6.50;;
572;SDS011;271;51.114;13.780;2024-03-23T18:47:25;22.05;;;5.22;;
572;SDS011;271;51.114;13.780;2024-03-23T18:50:15;23.17;;;5.60;;
572;SDS011;271;51.114;13.780;2024-03-23T18:53:04;21.20;;;5.57;;
572;SDS011;271;51.114;13.780;2024-03-23T18:55:56;19.90;;;5.15;;
572;SDS011;271;51.114;13.780;2024-03-23T18:59:18;20.42;;;4.40;;
572;SDS011;271;51.114;13.780;2024-03-23T19:02:07;20.45;;;5.10;;
572;SDS011;271;51.114;13.780;2024-03-23T19:04:54;21.23;;;5.82;;
572;SDS011;271;51.114;13.780;2024-03-23T19:07:51;19.10;;;4.30;;
572;SDS011;271;51.114;13.780;2024-03-23T19:10:38;21.88;;;5.25;;
572;SDS011;271;51.114;13.780;2024-03-23T19:13:28;23.48;;;5.20;;
572;SDS011;271;51.114;13.780;2024-03-23T19:16:18;21.98;;;5.47;;
572;SDS011;271;51.114;13.780;2024-03-23T19:19:07;20.58;;;5.00;;
572;SDS011;271;51.114;13.780;2024-03-23T19:21:58;20.25;;;5.20;;
572;SDS011;271;51.114;13.780;2024-03-23T19:24:46;21.25;;;5.35;;
572;SDS011;271;51.114;13.780;2024-03-23T19:27:34;23.02;;;6.65;;
572;SDS011;271;51.114;13.780;2024-03-23T19:30:26;25.40;;;8.35;;
572;SDS011;271;51.114;13.780;2024-03-23T19:33:15;24.40;;;8.23;;
572;SDS011;271;51.114;13.780;2024-03-23T19:36:03;26.92;;;9.32;;
572;SDS011;271;51.114;13.780;2024-03-23T19:38:51;27.92;;;10.25;;
572;SDS011;271;51.114;13.780;2024-03-23T19:41:38;29.50;;;11.25;;
572;SDS011;271;51.114;13.780;2024-03-23T19:44:28;26.52;;;9.40;;
572;SDS011;271;51.114;13.780;2024-03-23T19:47:16;22.35;;;7.10;;
572;SDS011;271;51.114;13.780;2024-03-23T19:50:03;21.52;;;6.80;;
572;SDS011;271;51.114;13.780;2024-03-23T19:52:50;20.98;;;6.10;;
572;SDS011;271;51.114;13.780;2024-03-23T19:55:38;23.77;;;6.85;;
572;SDS011;271;51.114;13.780;2024-03-23T19:58:25;22.65;;;6.35;;
572;SDS011;271;51.114;13.780;2024-03-23T20:01:13;21.08;;;6.30;;
572;SDS011;271;51.114;13.780;2024-03-23T20:04:02;21.33;;;5.80;;
572;SDS011;271;51.114;13.780;2024-03-23T20:06:50;22.33;;;6.20;;
572;SDS011;271;51.114;13.780;2024-03-23T20:09:37;20.23;;;5.28;;
572;SDS011;271;51.114;13.780;2024-03-23T20:12:24;21.35;;;5.13;;
572;SDS011;271;51.114;13.780;2024-03-23T20:15:11;19.73;;;4.85;;
572;SDS011;271;51.114;13.780;2024-03-23T20:18:00;21.10;;;5.82;;
572;SDS011;271;51.114;13.780;2024-03-23T20:20:50;20.80;;;5.60;;
572;SDS011;271;51.114;13.780;2024-03-23T20:23:56;20.80;;;5.45;;
572;SDS011;271;51.114;13.780;2024-03-23T20:33:56;20.90;;;4.72;;